logo
Search for airport 
image banner adimage banner adimage banner ad
image banner ad

EDPLE - Pleidelsheim

Located in , Germany

ICAO - ED0054, IATA -

Data provided by Airmate  

General information

Coordinates: N48°57'24" E9°11'30"
Elevation is 564 feet MSL.
 
View others Airports in Baden-Württemberg

Operational data

Special qualification required
Current time UTC:
Current local time:
Weather at : EDDS - Stuttgart ( 30 km )
METAR: EDDS 141550Z AUTO 31004KT 250V010 CAVOK 25/12 Q1014 NOSIG
TAF: TAF EDDS 141100Z 1412/1512 33004KT 9999 FEW045 BECMG 1510/1512 08005KT
View NOTAMs / SUP AIP / TFR affecting this airport [VIEW]
Communications frequencies: [VIEW]

Runways:

RWY identifierQFULength (ft)Width (ft)SurfaceLDA (ft)
0218°1509164GRASS
20198°1509164GRASS

Airport contact information

Satellite view of EDPLE